sensor_id;sensor_type;location;lat;lon;timestamp;temperature;humidity
1728;DHT22;861;48.808;9.006;2023-01-20T00:01:44;1.80;99.90
1728;DHT22;861;48.808;9.006;2023-01-20T00:04:14;1.80;99.90
1728;DHT22;861;48.808;9.006;2023-01-20T00:06:43;1.90;99.90
1728;DHT22;861;48.808;9.006;2023-01-20T00:09:15;1.90;99.90
1728;DHT22;861;48.808;9.006;2023-01-20T00:11:43;2.00;99.90
1728;DHT22;861;48.808;9.006;2023-01-20T00:14:11;2.20;99.90
1728;DHT22;861;48.808;9.006;2023-01-20T00:16:38;2.20;99.90
1728;DHT22;861;48.808;9.006;2023-01-20T00:19:04;2.30;99.90
1728;DHT22;861;48.808;9.006;2023-01-20T00:21:31;2.20;99.90
1728;DHT22;861;48.808;9.006;2023-01-20T00:23:59;2.30;99.90
1728;DHT22;861;48.808;9.006;2023-01-20T00:26:25;2.20;99.90
1728;DHT22;861;48.808;9.006;2023-01-20T00:28:54;2.10;99.90
1728;DHT22;861;48.808;9.006;2023-01-20T00:31:31;1.90;99.90
1728;DHT22;861;48.808;9.006;2023-01-20T00:33:59;2.00;99.90
1728;DHT22;861;48.808;9.006;2023-01-20T00:36:29;1.70;99.90
1728;DHT22;861;48.808;9.006;2023-01-20T00:38:57;1.70;99.90
1728;DHT22;861;48.808;9.006;2023-01-20T00:41:25;1.70;99.90
1728;DHT22;861;48.808;9.006;2023-01-20T00:43:51;1.80;99.90
1728;DHT22;861;48.808;9.006;2023-01-20T00:46:17;1.80;99.90
1728;DHT22;861;48.808;9.006;2023-01-20T00:48:44;1.90;99.90
1728;DHT22;861;48.808;9.006;2023-01-20T00:51:10;1.90;99.90
1728;DHT22;861;48.808;9.006;2023-01-20T00:53:37;1.80;99.90
1728;DHT22;861;48.808;9.006;2023-01-20T00:56:06;1.90;99.90
1728;DHT22;861;48.808;9.006;2023-01-20T00:58:34;1.90;99.90
1728;DHT22;861;48.808;9.006;2023-01-20T01:01:01;2.00;99.90
1728;DHT22;861;48.808;9.006;2023-01-20T01:03:27;2.00;99.90
1728;DHT22;861;48.808;9.006;2023-01-20T01:06:04;2.00;99.90
1728;DHT22;861;48.808;9.006;2023-01-20T01:08:34;2.10;99.90
1728;DHT22;861;48.808;9.006;2023-01-20T01:11:01;2.10;99.90
1728;DHT22;861;48.808;9.006;2023-01-20T01:13:27;2.10;99.90
1728;DHT22;861;48.808;9.006;2023-01-20T01:15:54;2.20;99.90
1728;DHT22;861;48.808;9.006;2023-01-20T01:18:20;2.30;99.90
1728;DHT22;861;48.808;9.006;2023-01-20T01:20:46;2.40;99.90
1728;DHT22;861;48.808;9.006;2023-01-20T01:23:12;2.30;99.90
1728;DHT22;861;48.808;9.006;2023-01-20T01:25:39;2.40;99.90
1728;DHT22;861;48.808;9.006;2023-01-20T01:28:05;2.40;99.90
1728;DHT22;861;48.808;9.006;2023-01-20T01:30:32;2.50;99.90
1728;DHT22;861;48.808;9.006;2023-01-20T01:32:58;2.40;99.90
1728;DHT22;861;48.808;9.006;2023-01-20T01:35:24;2.40;99.90
1728;DHT22;861;48.808;9.006;2023-01-20T01:37:50;2.50;99.90
1728;DHT22;861;48.808;9.006;2023-01-20T01:40:17;2.40;99.90
1728;DHT22;861;48.808;9.006;2023-01-20T01:42:43;2.30;99.90
1728;DHT22;861;48.808;9.006;2023-01-20T01:48:04;2.20;99.90
1728;DHT22;861;48.808;9.006;2023-01-20T01:50:46;2.30;99.90
1728;DHT22;861;48.808;9.006;2023-01-20T01:53:20;2.10;99.90
1728;DHT22;861;48.808;9.006;2023-01-20T01:55:55;2.00;99.90
1728;DHT22;861;48.808;9.006;2023-01-20T01:58:33;2.00;99.90
1728;DHT22;861;48.808;9.006;2023-01-20T02:01:04;1.90;99.90
1728;DHT22;861;48.808;9.006;2023-01-20T02:03:47;1.80;99.90
1728;DHT22;861;48.808;9.006;2023-01-20T02:06:31;1.90;99.90
1728;DHT22;861;48.808;9.006;2023-01-20T02:09:03;2.00;99.90
1728;DHT22;861;48.808;9.006;2023-01-20T02:11:42;1.80;99.90
1728;DHT22;861;48.808;9.006;2023-01-20T02:14:22;1.80;99.90
1728;DHT22;861;48.808;9.006;2023-01-20T02:17:30;1.90;99.90
1728;DHT22;861;48.808;9.006;2023-01-20T02:26:34;1.80;99.90
1728;DHT22;861;48.808;9.006;2023-01-20T02:32:55;1.60;99.90
1728;DHT22;861;48.808;9.006;2023-01-20T02:36:12;1.70;99.90
1728;DHT22;861;48.808;9.006;2023-01-20T02:39:26;1.70;99.90
1728;DHT22;861;48.808;9.006;2023-01-20T02:45:08;2.00;99.90
1728;DHT22;861;48.808;9.006;2023-01-20T02:48:35;2.10;99.90
1728;DHT22;861;48.808;9.006;2023-01-20T02:51:06;2.20;99.90
1728;DHT22;861;48.808;9.006;2023-01-20T02:53:50;2.10;99.90
1728;DHT22;861;48.808;9.006;2023-01-20T02:56:29;2.10;99.90
1728;DHT22;861;48.808;9.006;2023-01-20T02:59:16;2.20;99.90
1728;DHT22;861;48.808;9.006;2023-01-20T03:01:59;2.10;99.90
1728;DHT22;861;48.808;9.006;2023-01-20T03:04:42;2.10;99.90
1728;DHT22;861;48.808;9.006;2023-01-20T03:07:24;2.10;99.90
1728;DHT22;861;48.808;9.006;2023-01-20T03:10:02;1.90;99.90
1728;DHT22;861;48.808;9.006;2023-01-20T03:13:05;1.80;99.90
1728;DHT22;861;48.808;9.006;2023-01-20T03:16:24;1.70;99.90
1728;DHT22;861;48.808;9.006;2023-01-20T03:18:54;1.50;99.90
1728;DHT22;861;48.808;9.006;2023-01-20T03:21:22;1.70;99.90
1728;DHT22;861;48.808;9.006;2023-01-20T03:23:54;1.80;99.90
1728;DHT22;861;48.808;9.006;2023-01-20T03:26:27;1.90;99.90
1728;DHT22;861;48.808;9.006;2023-01-20T03:28:56;2.00;99.90
1728;DHT22;861;48.808;9.006;2023-01-20T03:31:29;1.80;99.90
1728;DHT22;861;48.808;9.006;2023-01-20T03:34:12;1.90;99.90
1728;DHT22;861;48.808;9.006;2023-01-20T03:36:45;2.10;99.90
1728;DHT22;861;48.808;9.006;2023-01-20T03:39:14;2.10;99.90
1728;DHT22;861;48.808;9.006;2023-01-20T03:45:40;2.20;99.90
1728;DHT22;861;48.808;9.006;2023-01-20T03:48:45;2.00;99.90
1728;DHT22;861;48.808;9.006;2023-01-20T03:55:09;1.80;99.90
1728;DHT22;861;48.808;9.006;2023-01-20T03:58:05;1.80;99.90
1728;DHT22;861;48.808;9.006;2023-01-20T04:00:42;1.80;99.90
1728;DHT22;861;48.808;9.006;2023-01-20T04:03:20;1.70;99.90
1728;DHT22;861;48.808;9.006;2023-01-20T04:06:00;1.60;99.90
1728;DHT22;861;48.808;9.006;2023-01-20T04:08:38;1.40;99.90
1728;DHT22;861;48.808;9.006;2023-01-20T04:11:12;1.50;99.90
1728;DHT22;861;48.808;9.006;2023-01-20T04:13:39;1.40;99.90
1728;DHT22;861;48.808;9.006;2023-01-20T04:16:16;1.50;99.90
1728;DHT22;861;48.808;9.006;2023-01-20T04:18:49;1.50;99.90
1728;DHT22;861;48.808;9.006;2023-01-20T04:21:44;1.70;99.90
1728;DHT22;861;48.808;9.006;2023-01-20T04:27:30;1.70;99.90
1728;DHT22;861;48.808;9.006;2023-01-20T04:29:56;1.50;99.90
1728;DHT22;861;48.808;9.006;2023-01-20T04:32:22;1.60;99.90
1728;DHT22;861;48.808;9.006;2023-01-20T04:34:51;1.70;99.90
1728;DHT22;861;48.808;9.006;2023-01-20T04:37:18;1.70;99.90
1728;DHT22;861;48.808;9.006;2023-01-20T04:39:44;1.70;99.90
1728;DHT22;861;48.808;9.006;2023-01-20T04:42:11;1.70;99.90
1728;DHT22;861;48.808;9.006;2023-01-20T04:44:37;1.70;99.90
1728;DHT22;861;48.808;9.006;2023-01-20T04:47:04;1.80;99.90
1728;DHT22;861;48.808;9.006;2023-01-20T04:49:30;1.90;99.90
1728;DHT22;861;48.808;9.006;2023-01-20T04:51:56;1.80;99.90
1728;DHT22;861;48.808;9.006;2023-01-20T04:54:22;2.00;99.90
1728;DHT22;861;48.808;9.006;2023-01-20T04:56:48;1.90;99.90
1728;DHT22;861;48.808;9.006;2023-01-20T04:59:15;2.00;99.90
1728;DHT22;861;48.808;9.006;2023-01-20T05:01:41;2.10;99.90
1728;DHT22;861;48.808;9.006;2023-01-20T05:04:07;2.10;99.90
1728;DHT22;861;48.808;9.006;2023-01-20T05:06:33;2.20;99.90
1728;DHT22;861;48.808;9.006;2023-01-20T05:09:00;2.30;99.90
1728;DHT22;861;48.808;9.006;2023-01-20T05:11:26;2.40;99.90
1728;DHT22;861;48.808;9.006;2023-01-20T05:13:52;2.40;99.90
1728;DHT22;861;48.808;9.006;2023-01-20T05:16:18;2.40;99.90
1728;DHT22;861;48.808;9.006;2023-01-20T05:18:49;2.40;99.90
1728;DHT22;861;48.808;9.006;2023-01-20T05:21:15;2.40;99.90
1728;DHT22;861;48.808;9.006;2023-01-20T05:23:42;2.40;99.90
1728;DHT22;861;48.808;9.006;2023-01-20T05:26:08;2.40;99.90
1728;DHT22;861;48.808;9.006;2023-01-20T05:28:35;2.30;99.90
1728;DHT22;861;48.808;9.006;2023-01-20T05:31:02;2.20;99.90
1728;DHT22;861;48.808;9.006;2023-01-20T05:33:28;1.90;99.90
1728;DHT22;861;48.808;9.006;2023-01-20T05:35:54;1.90;99.90
1728;DHT22;861;48.808;9.006;2023-01-20T05:38:20;1.80;99.90
1728;DHT22;861;48.808;9.006;2023-01-20T05:40:46;1.70;99.90
1728;DHT22;861;48.808;9.006;2023-01-20T05:43:12;1.90;99.90
1728;DHT22;861;48.808;9.006;2023-01-20T05:45:38;2.10;99.90
1728;DHT22;861;48.808;9.006;2023-01-20T05:48:04;2.10;99.90
1728;DHT22;861;48.808;9.006;2023-01-20T05:50:31;2.30;99.90
1728;DHT22;861;48.808;9.006;2023-01-20T05:52:57;2.20;99.90
1728;DHT22;861;48.808;9.006;2023-01-20T05:55:23;2.40;99.90
1728;DHT22;861;48.808;9.006;2023-01-20T05:57:49;2.40;99.90
1728;DHT22;861;48.808;9.006;2023-01-20T06:00:16;2.20;99.90
1728;DHT22;861;48.808;9.006;2023-01-20T06:02:43;2.30;99.90
1728;DHT22;861;48.808;9.006;2023-01-20T06:05:10;2.20;99.90
1728;DHT22;861;48.808;9.006;2023-01-20T06:07:36;2.30;99.90
1728;DHT22;861;48.808;9.006;2023-01-20T06:10:02;2.40;99.90
1728;DHT22;861;48.808;9.006;2023-01-20T06:12:29;2.40;99.90
1728;DHT22;861;48.808;9.006;2023-01-20T06:14:55;2.30;99.90
1728;DHT22;861;48.808;9.006;2023-01-20T06:17:21;2.30;99.90
1728;DHT22;861;48.808;9.006;2023-01-20T06:19:47;2.20;99.90
1728;DHT22;861;48.808;9.006;2023-01-20T06:22:14;2.30;99.90
1728;DHT22;861;48.808;9.006;2023-01-20T06:24:40;2.30;99.90
1728;DHT22;861;48.808;9.006;2023-01-20T06:27:06;2.40;99.90
1728;DHT22;861;48.808;9.006;2023-01-20T06:29:33;2.40;99.90
1728;DHT22;861;48.808;9.006;2023-01-20T06:31:59;2.50;99.90
1728;DHT22;861;48.808;9.006;2023-01-20T06:34:26;2.50;99.90
1728;DHT22;861;48.808;9.006;2023-01-20T06:36:52;2.50;99.90
1728;DHT22;861;48.808;9.006;2023-01-20T06:39:18;2.40;99.90
1728;DHT22;861;48.808;9.006;2023-01-20T06:41:44;2.30;99.90
1728;DHT22;861;48.808;9.006;2023-01-20T06:44:11;2.20;99.90
1728;DHT22;861;48.808;9.006;2023-01-20T06:46:37;2.10;99.90
1728;DHT22;861;48.808;9.006;2023-01-20T06:49:03;1.70;99.90
1728;DHT22;861;48.808;9.006;2023-01-20T06:51:30;1.70;99.90
1728;DHT22;861;48.808;9.006;2023-01-20T06:53:58;1.70;99.90
1728;DHT22;861;48.808;9.006;2023-01-20T06:58:51;1.50;99.90
1728;DHT22;861;48.808;9.006;2023-01-20T07:01:29;1.50;99.90
1728;DHT22;861;48.808;9.006;2023-01-20T07:03:56;1.50;99.90
1728;DHT22;861;48.808;9.006;2023-01-20T07:06:30;1.50;99.90
1728;DHT22;861;48.808;9.006;2023-01-20T07:09:01;1.50;99.90
1728;DHT22;861;48.808;9.006;2023-01-20T07:11:28;1.30;99.90
1728;DHT22;861;48.808;9.006;2023-01-20T07:13:56;1.40;99.90
1728;DHT22;861;48.808;9.006;2023-01-20T07:16:23;1.30;99.90
1728;DHT22;861;48.808;9.006;2023-01-20T07:18:51;1.30;99.90
1728;DHT22;861;48.808;9.006;2023-01-20T07:21:19;1.20;99.90
1728;DHT22;861;48.808;9.006;2023-01-20T07:23:46;1.10;99.90
1728;DHT22;861;48.808;9.006;2023-01-20T07:26:16;1.20;99.90
1728;DHT22;861;48.808;9.006;2023-01-20T07:28:46;1.30;99.90
1728;DHT22;861;48.808;9.006;2023-01-20T07:31:17;1.30;99.90
1728;DHT22;861;48.808;9.006;2023-01-20T07:33:46;1.40;99.90
1728;DHT22;861;48.808;9.006;2023-01-20T07:36:15;1.40;99.90
1728;DHT22;861;48.808;9.006;2023-01-20T07:38:47;1.30;99.90
1728;DHT22;861;48.808;9.006;2023-01-20T07:41:17;1.20;99.90
1728;DHT22;861;48.808;9.006;2023-01-20T07:43:50;1.20;99.90
1728;DHT22;861;48.808;9.006;2023-01-20T07:46:19;1.10;99.90
1728;DHT22;861;48.808;9.006;2023-01-20T07:48:46;0.90;99.90
1728;DHT22;861;48.808;9.006;2023-01-20T07:51:14;1.00;99.90
1728;DHT22;861;48.808;9.006;2023-01-20T07:53:48;1.10;99.90
1728;DHT22;861;48.808;9.006;2023-01-20T07:56:25;1.10;99.90
1728;DHT22;861;48.808;9.006;2023-01-20T07:58:54;1.10;99.90
1728;DHT22;861;48.808;9.006;2023-01-20T08:03:53;1.50;99.90
1728;DHT22;861;48.808;9.006;2023-01-20T08:06:24;1.60;99.90
1728;DHT22;861;48.808;9.006;2023-01-20T08:08:52;1.60;99.90
1728;DHT22;861;48.808;9.006;2023-01-20T08:11:21;1.60;99.90
1728;DHT22;861;48.808;9.006;2023-01-20T08:13:49;1.80;99.90
1728;DHT22;861;48.808;9.006;2023-01-20T08:16:17;1.80;99.90
1728;DHT22;861;48.808;9.006;2023-01-20T08:18:44;1.80;99.90
1728;DHT22;861;48.808;9.006;2023-01-20T08:21:25;1.80;99.90
1728;DHT22;861;48.808;9.006;2023-01-20T08:23:58;1.70;99.90
1728;DHT22;861;48.808;9.006;2023-01-20T08:26:30;1.60;99.90
1728;DHT22;861;48.808;9.006;2023-01-20T08:29:08;1.60;99.90
1728;DHT22;861;48.808;9.006;2023-01-20T08:31:35;1.50;99.90
1728;DHT22;861;48.808;9.006;2023-01-20T08:34:03;1.50;99.90
1728;DHT22;861;48.808;9.006;2023-01-20T08:36:34;1.20;99.90
1728;DHT22;861;48.808;9.006;2023-01-20T08:39:08;1.10;99.90
1728;DHT22;861;48.808;9.006;2023-01-20T08:41:42;1.00;99.90
1728;DHT22;861;48.808;9.006;2023-01-20T08:44:10;1.00;99.90
1728;DHT22;861;48.808;9.006;2023-01-20T08:46:39;1.00;99.90
1728;DHT22;861;48.808;9.006;2023-01-20T08:49:13;1.00;99.90
1728;DHT22;861;48.808;9.006;2023-01-20T08:51:43;1.10;99.90
1728;DHT22;861;48.808;9.006;2023-01-20T08:54:10;1.10;99.90
1728;DHT22;861;48.808;9.006;2023-01-20T08:56:36;1.30;99.90
1728;DHT22;861;48.808;9.006;2023-01-20T08:59:03;1.30;99.90
1728;DHT22;861;48.808;9.006;2023-01-20T09:01:32;1.50;99.90
1728;DHT22;861;48.808;9.006;2023-01-20T09:04:03;1.70;99.90
1728;DHT22;861;48.808;9.006;2023-01-20T09:06:43;1.80;99.90
1728;DHT22;861;48.808;9.006;2023-01-20T09:09:16;2.10;99.90
1728;DHT22;861;48.808;9.006;2023-01-20T09:11:45;2.20;99.90
1728;DHT22;861;48.808;9.006;2023-01-20T09:14:20;2.40;99.90
1728;DHT22;861;48.808;9.006;2023-01-20T09:16:50;2.50;99.90
1728;DHT22;861;48.808;9.006;2023-01-20T09:19:17;2.30;99.90
1728;DHT22;861;48.808;9.006;2023-01-20T09:21:43;2.30;99.90
1728;DHT22;861;48.808;9.006;2023-01-20T09:24:09;2.30;99.90
1728;DHT22;861;48.808;9.006;2023-01-20T09:26:36;2.30;99.90
1728;DHT22;861;48.808;9.006;2023-01-20T09:29:12;2.50;99.90
1728;DHT22;861;48.808;9.006;2023-01-20T09:31:49;2.70;99.90
1728;DHT22;861;48.808;9.006;2023-01-20T09:34:17;2.90;99.90
1728;DHT22;861;48.808;9.006;2023-01-20T09:36:57;3.10;99.90
1728;DHT22;861;48.808;9.006;2023-01-20T09:39:47;3.30;99.90
1728;DHT22;861;48.808;9.006;2023-01-20T09:43:32;3.50;99.90
1728;DHT22;861;48.808;9.006;2023-01-20T09:54:08;3.90;99.90
1728;DHT22;861;48.808;9.006;2023-01-20T09:56:53;3.80;99.90
1728;DHT22;861;48.808;9.006;2023-01-20T09:59:36;3.70;99.90
1728;DHT22;861;48.808;9.006;2023-01-20T10:02:30;3.80;99.90
1728;DHT22;861;48.808;9.006;2023-01-20T10:05:37;3.90;99.90
1728;DHT22;861;48.808;9.006;2023-01-20T10:08:28;4.10;99.90
1728;DHT22;861;48.808;9.006;2023-01-20T10:11:16;4.30;99.90
1728;DHT22;861;48.808;9.006;2023-01-20T10:13:49;4.40;99.90
1728;DHT22;861;48.808;9.006;2023-01-20T10:16:38;4.40;99.90
1728;DHT22;861;48.808;9.006;2023-01-20T10:19:53;4.30;99.90
1728;DHT22;861;48.808;9.006;2023-01-20T10:22:57;3.90;99.90
1728;DHT22;861;48.808;9.006;2023-01-20T10:25:58;3.90;99.90
1728;DHT22;861;48.808;9.006;2023-01-20T10:28:46;3.70;99.90
1728;DHT22;861;48.808;9.006;2023-01-20T10:31:27;3.90;99.90
1728;DHT22;861;48.808;9.006;2023-01-20T10:34:19;4.00;99.90
1728;DHT22;861;48.808;9.006;2023-01-20T10:37:07;4.10;99.90
1728;DHT22;861;48.808;9.006;2023-01-20T10:39:55;4.30;99.90
1728;DHT22;861;48.808;9.006;2023-01-20T10:42:38;4.30;99.90
1728;DHT22;861;48.808;9.006;2023-01-20T10:45:20;4.40;99.90
1728;DHT22;861;48.808;9.006;2023-01-20T10:48:49;4.60;99.90
1728;DHT22;861;48.808;9.006;2023-01-20T10:55:35;5.00;99.90
1728;DHT22;861;48.808;9.006;2023-01-20T10:58:34;5.00;99.90
1728;DHT22;861;48.808;9.006;2023-01-20T11:01:10;4.90;99.90
1728;DHT22;861;48.808;9.006;2023-01-20T11:03:45;5.10;99.90
1728;DHT22;861;48.808;9.006;2023-01-20T11:06:24;4.90;99.90
1728;DHT22;861;48.808;9.006;2023-01-20T11:08:53;4.80;99.90
1728;DHT22;861;48.808;9.006;2023-01-20T11:11:24;4.90;99.90
1728;DHT22;861;48.808;9.006;2023-01-20T11:13:52;5.30;99.90
1728;DHT22;861;48.808;9.006;2023-01-20T11:16:24;5.60;99.90
1728;DHT22;861;48.808;9.006;2023-01-20T11:18:58;5.70;99.90
1728;DHT22;861;48.808;9.006;2023-01-20T11:21:33;5.70;99.90
1728;DHT22;861;48.808;9.006;2023-01-20T11:27:17;5.70;99.90
1728;DHT22;861;48.808;9.006;2023-01-20T11:29:58;5.70;99.90
1728;DHT22;861;48.808;9.006;2023-01-20T11:32:37;5.70;99.90
1728;DHT22;861;48.808;9.006;2023-01-20T11:35:24;5.70;99.90
1728;DHT22;861;48.808;9.006;2023-01-20T11:37:51;5.70;99.90
1728;DHT22;861;48.808;9.006;2023-01-20T11:40:27;6.00;99.90
1728;DHT22;861;48.808;9.006;2023-01-20T11:42:54;6.20;99.90
1728;DHT22;861;48.808;9.006;2023-01-20T11:45:30;6.30;99.90
1728;DHT22;861;48.808;9.006;2023-01-20T11:48:17;6.30;99.90
1728;DHT22;861;48.808;9.006;2023-01-20T11:50:52;6.30;99.90
1728;DHT22;861;48.808;9.006;2023-01-20T11:53:31;6.50;99.90
1728;DHT22;861;48.808;9.006;2023-01-20T11:56:04;6.90;99.90
1728;DHT22;861;48.808;9.006;2023-01-20T11:58:58;7.10;99.90
1728;DHT22;861;48.808;9.006;2023-01-20T12:01:59;7.60;99.90
1728;DHT22;861;48.808;9.006;2023-01-20T12:04:53;7.50;99.90
1728;DHT22;861;48.808;9.006;2023-01-20T12:07:48;7.80;99.90
1728;DHT22;861;48.808;9.006;2023-01-20T12:10:35;7.90;99.90
1728;DHT22;861;48.808;9.006;2023-01-20T12:13:26;8.00;99.90
1728;DHT22;861;48.808;9.006;2023-01-20T12:16:24;8.00;99.90
1728;DHT22;861;48.808;9.006;2023-01-20T12:19:13;8.00;99.90
1728;DHT22;861;48.808;9.006;2023-01-20T12:21:53;7.90;99.90
1728;DHT22;861;48.808;9.006;2023-01-20T12:25:12;7.90;99.90
1728;DHT22;861;48.808;9.006;2023-01-20T12:28:02;7.60;99.90
1728;DHT22;861;48.808;9.006;2023-01-20T12:30:59;7.20;99.90
1728;DHT22;861;48.808;9.006;2023-01-20T12:33:41;6.50;99.90
1728;DHT22;861;48.808;9.006;2023-01-20T12:46:37;5.90;99.90
1728;DHT22;861;48.808;9.006;2023-01-20T12:49:42;5.90;99.90
1728;DHT22;861;48.808;9.006;2023-01-20T12:56:19;5.70;99.90
1728;DHT22;861;48.808;9.006;2023-01-20T13:16:44;5.30;99.90
1728;DHT22;861;48.808;9.006;2023-01-20T13:19:43;5.50;99.90
1728;DHT22;861;48.808;9.006;2023-01-20T13:22:22;5.50;99.90
1728;DHT22;861;48.808;9.006;2023-01-20T13:24:54;5.40;99.90
1728;DHT22;861;48.808;9.006;2023-01-20T13:27:37;5.30;99.90
1728;DHT22;861;48.808;9.006;2023-01-20T13:30:06;5.00;99.90
1728;DHT22;861;48.808;9.006;2023-01-20T13:33:12;4.70;99.90
1728;DHT22;861;48.808;9.006;2023-01-20T13:35:48;4.70;99.90
1728;DHT22;861;48.808;9.006;2023-01-20T13:38:29;4.70;99.90
1728;DHT22;861;48.808;9.006;2023-01-20T13:41:02;4.40;99.90
1728;DHT22;861;48.808;9.006;2023-01-20T13:49:13;4.10;99.90
1728;DHT22;861;48.808;9.006;2023-01-20T13:51:49;4.10;99.90
1728;DHT22;861;48.808;9.006;2023-01-20T13:59:45;3.80;99.90
1728;DHT22;861;48.808;9.006;2023-01-20T14:02:21;3.90;99.90
1728;DHT22;861;48.808;9.006;2023-01-20T14:04:50;3.80;99.90
1728;DHT22;861;48.808;9.006;2023-01-20T14:07:29;3.80;99.90
1728;DHT22;861;48.808;9.006;2023-01-20T14:10:00;3.80;99.90
1728;DHT22;861;48.808;9.006;2023-01-20T14:12:27;3.80;99.90
1728;DHT22;861;48.808;9.006;2023-01-20T14:14:54;4.00;99.90
1728;DHT22;861;48.808;9.006;2023-01-20T14:17:23;4.40;99.90
1728;DHT22;861;48.808;9.006;2023-01-20T14:19:54;4.80;99.90
1728;DHT22;861;48.808;9.006;2023-01-20T14:22:30;5.30;99.90
1728;DHT22;861;48.808;9.006;2023-01-20T14:24:58;5.60;99.90
1728;DHT22;861;48.808;9.006;2023-01-20T14:27:32;5.80;99.90
1728;DHT22;861;48.808;9.006;2023-01-20T14:30:23;6.40;99.90
1728;DHT22;861;48.808;9.006;2023-01-20T14:32:53;6.50;99.90
1728;DHT22;861;48.808;9.006;2023-01-20T14:35:30;7.00;99.90
1728;DHT22;861;48.808;9.006;2023-01-20T14:37:59;7.00;99.90
1728;DHT22;861;48.808;9.006;2023-01-20T14:40:32;7.50;99.90
1728;DHT22;861;48.808;9.006;2023-01-20T14:43:17;7.60;99.90
1728;DHT22;861;48.808;9.006;2023-01-20T14:45:50;7.90;99.90
1728;DHT22;861;48.808;9.006;2023-01-20T14:48:19;7.80;99.90
1728;DHT22;861;48.808;9.006;2023-01-20T14:50:49;8.10;99.90
1728;DHT22;861;48.808;9.006;2023-01-20T14:53:18;8.40;99.90
1728;DHT22;861;48.808;9.006;2023-01-20T14:58:34;8.20;99.90
1728;DHT22;861;48.808;9.006;2023-01-20T15:01:05;8.10;99.90
1728;DHT22;861;48.808;9.006;2023-01-20T15:03:32;8.00;99.90
1728;DHT22;861;48.808;9.006;2023-01-20T15:06:21;7.90;99.90
1728;DHT22;861;48.808;9.006;2023-01-20T15:08:49;7.50;99.90
1728;DHT22;861;48.808;9.006;2023-01-20T15:11:22;7.30;99.90
1728;DHT22;861;48.808;9.006;2023-01-20T15:21:45;6.80;99.90
1728;DHT22;861;48.808;9.006;2023-01-20T15:24:20;6.60;99.90
1728;DHT22;861;48.808;9.006;2023-01-20T15:27:01;6.50;99.90
1728;DHT22;861;48.808;9.006;2023-01-20T15:30:17;6.20;99.90
1728;DHT22;861;48.808;9.006;2023-01-20T15:32:50;5.90;99.90
1728;DHT22;861;48.808;9.006;2023-01-20T15:35:21;5.50;99.90
1728;DHT22;861;48.808;9.006;2023-01-20T15:37:51;4.90;99.90
1728;DHT22;861;48.808;9.006;2023-01-20T15:40:23;4.60;99.90
1728;DHT22;861;48.808;9.006;2023-01-20T15:42:50;4.10;99.90
1728;DHT22;861;48.808;9.006;2023-01-20T15:45:18;3.80;99.90
1728;DHT22;861;48.808;9.006;2023-01-20T15:47:46;3.50;99.90
1728;DHT22;861;48.808;9.006;2023-01-20T15:50:20;3.50;99.90
1728;DHT22;861;48.808;9.006;2023-01-20T15:52:49;3.40;99.90
1728;DHT22;861;48.808;9.006;2023-01-20T15:55:17;3.30;99.90
1728;DHT22;861;48.808;9.006;2023-01-20T15:57:49;3.30;99.90
1728;DHT22;861;48.808;9.006;2023-01-20T16:00:24;3.40;99.90
1728;DHT22;861;48.808;9.006;2023-01-20T16:02:53;3.40;99.90
1728;DHT22;861;48.808;9.006;2023-01-20T16:05:19;3.20;99.90
1728;DHT22;861;48.808;9.006;2023-01-20T16:07:46;3.40;99.90
1728;DHT22;861;48.808;9.006;2023-01-20T16:10:18;3.50;99.90
1728;DHT22;861;48.808;9.006;2023-01-20T16:12:46;3.50;99.90
1728;DHT22;861;48.808;9.006;2023-01-20T16:15:15;3.70;99.90
1728;DHT22;861;48.808;9.006;2023-01-20T16:17:43;3.80;99.90
1728;DHT22;861;48.808;9.006;2023-01-20T16:20:20;3.90;99.90
1728;DHT22;861;48.808;9.006;2023-01-20T16:22:50;4.00;99.90
1728;DHT22;861;48.808;9.006;2023-01-20T16:25:18;3.90;99.90
1728;DHT22;861;48.808;9.006;2023-01-20T16:27:45;3.90;99.90
1728;DHT22;861;48.808;9.006;2023-01-20T16:30:17;3.70;99.90
1728;DHT22;861;48.808;9.006;2023-01-20T16:32:46;3.60;99.90
1728;DHT22;861;48.808;9.006;2023-01-20T16:35:14;3.60;99.90
1728;DHT22;861;48.808;9.006;2023-01-20T16:37:46;3.40;99.90
1728;DHT22;861;48.808;9.006;2023-01-20T16:40:15;3.20;99.90
1728;DHT22;861;48.808;9.006;2023-01-20T16:42:47;3.00;99.90
1728;DHT22;861;48.808;9.006;2023-01-20T16:45:24;3.00;99.90
1728;DHT22;861;48.808;9.006;2023-01-20T16:47:54;3.10;99.90
1728;DHT22;861;48.808;9.006;2023-01-20T16:50:21;3.30;99.90
1728;DHT22;861;48.808;9.006;2023-01-20T16:52:47;3.30;99.90
1728;DHT22;861;48.808;9.006;2023-01-20T16:55:14;3.40;99.90
1728;DHT22;861;48.808;9.006;2023-01-20T16:57:41;3.40;99.90
1728;DHT22;861;48.808;9.006;2023-01-20T17:00:08;3.60;99.90
1728;DHT22;861;48.808;9.006;2023-01-20T17:02:35;3.60;99.90
1728;DHT22;861;48.808;9.006;2023-01-20T17:05:05;3.50;99.90
1728;DHT22;861;48.808;9.006;2023-01-20T17:07:33;3.60;99.90
1728;DHT22;861;48.808;9.006;2023-01-20T17:10:00;3.60;99.90
1728;DHT22;861;48.808;9.006;2023-01-20T17:12:26;3.60;99.90
1728;DHT22;861;48.808;9.006;2023-01-20T17:14:52;3.60;99.90
1728;DHT22;861;48.808;9.006;2023-01-20T17:17:18;3.60;99.90
1728;DHT22;861;48.808;9.006;2023-01-20T17:19:47;3.40;99.90
1728;DHT22;861;48.808;9.006;2023-01-20T17:22:14;3.50;99.90
1728;DHT22;861;48.808;9.006;2023-01-20T17:24:42;3.50;99.90
1728;DHT22;861;48.808;9.006;2023-01-20T17:27:08;3.50;99.90
1728;DHT22;861;48.808;9.006;2023-01-20T17:29:34;3.50;99.90
1728;DHT22;861;48.808;9.006;2023-01-20T17:32:04;3.50;99.90
1728;DHT22;861;48.808;9.006;2023-01-20T17:34:33;3.50;99.90
1728;DHT22;861;48.808;9.006;2023-01-20T17:36:59;3.30;99.90
1728;DHT22;861;48.808;9.006;2023-01-20T17:39:26;3.00;99.90
1728;DHT22;861;48.808;9.006;2023-01-20T17:41:52;2.70;99.90
1728;DHT22;861;48.808;9.006;2023-01-20T17:44:19;2.60;99.90
1728;DHT22;861;48.808;9.006;2023-01-20T17:46:47;2.60;99.90
1728;DHT22;861;48.808;9.006;2023-01-20T17:49:15;2.70;99.90
1728;DHT22;861;48.808;9.006;2023-01-20T17:51:41;2.70;99.90
1728;DHT22;861;48.808;9.006;2023-01-20T17:54:08;2.60;99.90
1728;DHT22;861;48.808;9.006;2023-01-20T17:56:36;2.60;99.90
1728;DHT22;861;48.808;9.006;2023-01-20T17:59:04;2.50;99.90
1728;DHT22;861;48.808;9.006;2023-01-20T18:01:31;2.40;99.90
1728;DHT22;861;48.808;9.006;2023-01-20T18:04:01;2.30;99.90
1728;DHT22;861;48.808;9.006;2023-01-20T18:06:37;2.50;99.90
1728;DHT22;861;48.808;9.006;2023-01-20T18:09:06;2.50;99.90
1728;DHT22;861;48.808;9.006;2023-01-20T18:11:35;2.40;99.90
1728;DHT22;861;48.808;9.006;2023-01-20T18:14:05;2.40;99.90
1728;DHT22;861;48.808;9.006;2023-01-20T18:16:37;2.50;99.90
1728;DHT22;861;48.808;9.006;2023-01-20T18:19:09;2.40;99.90
1728;DHT22;861;48.808;9.006;2023-01-20T18:21:41;2.30;99.90
1728;DHT22;861;48.808;9.006;2023-01-20T18:24:10;2.30;99.90
1728;DHT22;861;48.808;9.006;2023-01-20T18:26:40;2.20;99.90
1728;DHT22;861;48.808;9.006;2023-01-20T18:29:14;2.20;99.90
1728;DHT22;861;48.808;9.006;2023-01-20T18:31:42;2.20;99.90
1728;DHT22;861;48.808;9.006;2023-01-20T18:34:13;2.20;99.90
1728;DHT22;861;48.808;9.006;2023-01-20T18:36:44;2.20;99.90
1728;DHT22;861;48.808;9.006;2023-01-20T18:39:20;2.30;99.90
1728;DHT22;861;48.808;9.006;2023-01-20T18:41:50;2.20;99.90
1728;DHT22;861;48.808;9.006;2023-01-20T18:44:18;2.20;99.90
1728;DHT22;861;48.808;9.006;2023-01-20T18:46:45;2.10;99.90
1728;DHT22;861;48.808;9.006;2023-01-20T18:49:15;2.10;99.90
1728;DHT22;861;48.808;9.006;2023-01-20T18:51:43;2.00;99.90
1728;DHT22;861;48.808;9.006;2023-01-20T18:54:16;1.90;99.90
1728;DHT22;861;48.808;9.006;2023-01-20T18:56:46;1.90;99.90
1728;DHT22;861;48.808;9.006;2023-01-20T18:59:13;1.80;99.90